ADDS METAR Data INFO
IDs: Format: Raw Decoded Include TAF

Data at: 1131 UTC 17 Jul 2018

K3J7 171115Z AUTO 00000KT 7SM OVC008 23/22 A3001 RMK AO2
K3J7 171055Z AUTO 00000KT 7SM BKN008 OVC012 23/22 A3001 RMK AO2
K3J7 171035Z AUTO 00000KT 7SM OVC010 22/22 A3001 RMK AO2
K3J7 171015Z AUTO 00000KT 7SM OVC012 22/22 A3000 RMK AO2
K3J7 170955Z AUTO 00000KT 7SM OVC014 22/22 A3000 RMK AO2
K3J7 170935Z AUTO 00000KT A2999 RMK AO2 PWINO
K3J7 170655Z AUTO 00000KT 10SM -RA SCT100 SCT120 22/22 A2998 RMK AO2
K3J7 170635Z AUTO 00000KT 10SM -RA CLR 22/22 A2997 RMK AO2
K3J7 170615Z AUTO 00000KT 7SM -DZ CLR 22/22 A2998 RMK AO2
K3J7 170555Z AUTO 30004KT 7SM -RA SCT120 22/21 A2999 RMK AO2
K3J7 170535Z AUTO 29005KT 7SM RA SCT120 22/21 A3000 RMK AO2
K3J7 170515Z AUTO 30003KT 10SM -RA SCT060 SCT090 BKN120 22/21 A3000 RMK AO2
K3J7 170455Z AUTO 25005KT 3SM +TSRA SCT010 BKN060 OVC080 22/21 A3003 RMK AO2 LTG DSNT SE THRU NW
K3J7 170435Z AUTO 23009G16KT 7SM +TSRA SCT010 BKN015 OVC037 23/22 A3006 RMK AO2 LTG DSNT ALQS
K3J7 170415Z AUTO 25010G16KT 7SM VCTS SCT023 SCT028 BKN041 24/23 A3005 RMK AO2 LTG DSNT S THRU NW
K3J7 170355Z AUTO 00000KT 4SM BR CLR 26/25 A3001 RMK AO2 LTG DSNT SW AND NW
K3J7 170335Z AUTO 00000KT 4SM BR CLR 26/25 A3001 RMK AO2 LTG DSNT NW
K3J7 170315Z AUTO 13003KT 4SM BR CLR 25/25 A3001 RMK AO2 LTG DSNT SW AND NW
K3J7 170255Z AUTO 00000KT 2 1/2SM BR BKN120 25/25 A3000 RMK AO2 LTG DSNT SE W AND NW
K3J7 170235Z AUTO 00000KT 4SM BR SCT065 SCT090 OVC120 25/25 A3001 RMK AO2 LTG DSNT W AND NW
K3J7 170215Z AUTO 00000KT 4SM BR SCT090 25/25 A3001 RMK AO2 LTG DSNT SE AND W
K3J7 170155Z AUTO 00000KT 5SM BR CLR 25/25 A3000 RMK AO2 LTG DSNT W AND NW
K3J7 170135Z AUTO 00000KT 3SM BR CLR 26/25 A2998 RMK AO2 LTG DSNT ALQS
K3J7 170115Z AUTO 00000KT 3SM BR SCT120 26/25 A2998 RMK AO2 LTG DSNT S THRU NW
K3J7 170055Z AUTO 00000KT 3SM BR OVC110 26/25 A2998 RMK AO2 LTG DSNT NW
K3J7 170035Z AUTO 00000KT 4SM BR OVC110 26/25 A2998 RMK AO2 LTG DSNT SE AND NW
K3J7 170015Z AUTO 00000KT 7SM SCT090 BKN110 26/25 A2999 RMK AO2 LTG DSNT SE
K3J7 162355Z AUTO 00000KT 4SM BR BKN110 26/25 A2998 RMK AO2
K3J7 162335Z AUTO 00000KT 7SM -RA SCT040 SCT050 SCT070 26/25 A2999 RMK AO2 LTG DSNT NE THRU SE
K3J7 162315Z AUTO 00000KT 7SM -RA SCT048 SCT060 BKN100 26/25 A2998 RMK AO2
K3J7 162255Z AUTO 00000KT 5SM -DZ SCT005 SCT050 BKN100 26/25 A2998 RMK AO2 LTG DSNT E SE AND NW
K3J7 162235Z AUTO 00000KT 1 3/4SM -RA SCT047 BKN070 OVC110 27/26 A2996 RMK AO2 LTG DSNT SE
K3J7 162215Z AUTO 00000KT 4SM -RA SCT031 SCT050 BKN070 27/26 A2997 RMK AO2 LTG DSNT NE AND SE
K3J7 162155Z AUTO 00000KT 7SM -DZ SCT020 SCT029 BKN049 27/26 A2997 RMK AO2 LTG DSNT SE
K3J7 162135Z AUTO 00000KT 10SM BKN020 BKN029 BKN060 27/26 A2997 RMK AO2 LTG DSNT SE AND SW
K3J7 162115Z AUTO 00000KT 7SM -TSRA BKN024 BKN040 OVC055 27/26 A2998 RMK AO2 LTG DSNT E AND NW
K3J7 162055Z AUTO 14003KT 3SM -VCTSRA BKN028 BKN045 OVC070 27/25 A2998 RMK AO2 LTG DSNT SE W AND NW
K3J7 162035Z AUTO 00000KT 2SM +VCTSRA SCT026 BKN031 OVC038 28/25 A2998 RMK AO2 LTG DSNT W AND NW
K3J7 162015Z AUTO 18003KT 10SM VCTS SCT030 SCT035 BKN070 29/25 A2998 RMK AO2 LTG DSNT ALQS
K3J7 161955Z AUTO 12006KT 10SM VCTS CLR 30/25 A2999 RMK AO2 LTG DSNT E W AND NW
K3J7 161935Z AUTO 15007KT 10SM VCTS CLR 30/25 A2999 RMK AO2 LTG DSNT NW THRU SE
K3J7 161915Z AUTO 14006KT 10SM TS SCT021 SCT028 SCT040 28/25 A3000 RMK AO2 LTG DSNT ALQS
K3J7 161855Z AUTO 13009KT 10SM SCT014 BKN021 BKN029 28/24 A3001 RMK AO2 LTG DSNT ALQS
K3J7 161835Z AUTO 27004KT 10SM TS BKN017 BKN025 BKN031 30/25 A3001 RMK AO2 LTG DSNT SE S AND NW
K3J7 161815Z AUTO 00000KT 10SM -RA OVC017 28/25 A3001 RMK AO2 LTG DSNT S
K3J7 161755Z AUTO 00000KT 10SM BKN019 BKN026 OVC055 28/25 A3002 RMK AO2 LTG DSNT S
K3J7 161735Z AUTO 00000KT 10SM SCT017 BKN026 BKN032 30/25 A3003 RMK AO2
K3J7 161715Z AUTO 16004KT 10SM BKN015 BKN020 OVC027 29/25 A3004 RMK AO2
K3J7 161655Z AUTO 00000KT 10SM SCT015 OVC020 28/25 A3005 RMK AO2 LTG DSNT SE AND NW
K3J7 161635Z AUTO 14003KT 10SM OVC013 28/25 A3005 RMK AO2 LTG DSNT NW
K3J7 161615Z AUTO 17003KT 10SM OVC011 28/24 A3005 RMK AO2
K3J7 161555Z AUTO 16005KT 10SM OVC011 28/25 A3005 RMK AO2
K3J7 161535Z AUTO 00000KT 10SM OVC009 28/25 A3005 RMK AO2
K3J7 161515Z AUTO 17003KT 10SM OVC009 27/24 A3005 RMK AO2
K3J7 161455Z AUTO 19003KT 10SM OVC009 26/24 A3005 RMK AO2
K3J7 161435Z AUTO 00000KT 10SM OVC007 26/24 A3005 RMK AO2 LTG DSNT SE
K3J7 161415Z AUTO 18003KT 7SM OVC007 26/24 A3005 RMK AO2 LTG DSNT SE
K3J7 161355Z AUTO 00000KT 7SM OVC007 26/24 A3005 RMK AO2 LTG DSNT SE
K3J7 161335Z AUTO 00000KT 7SM OVC007 26/24 A3005 RMK AO2 LTG DSNT SE
K3J7 161315Z AUTO 17003KT 7SM OVC005 26/24 A3005 RMK AO2
K3J7 161255Z AUTO 22003KT 5SM BR OVC003 25/24 A3004 RMK AO2 LTG DSNT SE
K3J7 161235Z AUTO 00000KT 3SM BR OVC003 25/24 A3004 RMK AO2
K3J7 161215Z AUTO 20004KT 1 3/4SM BR OVC003 24/23 A3004 RMK AO2
K3J7 161155Z AUTO 23004KT 1 1/4SM BR OVC003 24/23 A3004 RMK AO2
K3J7 161135Z AUTO 00000KT 3/4SM BR OVC003 24/23 A3004 RMK AO2
K3J7 161115Z AUTO 00000KT 3/4SM BR OVC003 24/23 A3003 RMK AO2
K3J7 161055Z AUTO 00000KT 1 1/4SM BR OVC003 24/23 A3003 RMK AO2
K3J7 161035Z AUTO 00000KT 2 1/2SM BR OVC003 24/23 A3002 RMK AO2
K3J7 161015Z AUTO 00000KT 3SM BR OVC003 24/23 A3002 RMK AO2
K3J7 160955Z AUTO 00000KT 4SM BR OVC003 23/23 A3002 RMK AO2
K3J7 160935Z AUTO 00000KT 5SM BR OVC003 23/23 A3001 RMK AO2
K3J7 160915Z AUTO 00000KT 5SM BR OVC003 23/23 A3001 RMK AO2
K3J7 160855Z AUTO 00000KT 5SM BR BKN007 OVC018 23/23 A3001 RMK AO2
K3J7 160835Z AUTO 00000KT 7SM SCT018 23/23 A3001 RMK AO2
K3J7 160815Z AUTO 00000KT 7SM SCT016 23/23 A3001 RMK AO2
K3J7 160755Z AUTO 00000KT 7SM CLR 23/23 A3000 RMK AO2
K3J7 160735Z AUTO 12003KT 7SM CLR 23/23 A3000 RMK AO2
K3J7 160715Z AUTO 00000KT 7SM CLR 23/23 A3000 RMK AO2
K3J7 160655Z AUTO 00000KT 7SM CLR 24/23 A3001 RMK AO2
K3J7 160635Z AUTO 00000KT 7SM CLR 24/23 A3001 RMK AO2
K3J7 160615Z AUTO 00000KT 7SM CLR 24/23 A3002 RMK AO2
K3J7 160555Z AUTO 00000KT 7SM SCT046 24/23 A3003 RMK AO2
K3J7 160535Z AUTO 00000KT 7SM BKN048 25/23 A3004 RMK AO2
K3J7 160515Z AUTO 00000KT 7SM VCTS BKN046 25/23 A3004 RMK AO2
K3J7 160455Z AUTO 00000KT 7SM CLR 25/23 A3005 RMK AO2
K3J7 160435Z AUTO 12003KT 10SM SCT022 SCT120 25/23 A3004 RMK AO2
K3J7 160415Z AUTO 00000KT 10SM SCT120 25/23 A3005 RMK AO2
K3J7 160355Z AUTO 14003KT 10SM OVC120 25/23 A3004 RMK AO2 LTG DSNT E AND NW
K3J7 160335Z AUTO 00000KT 10SM BKN120 25/23 A3004 RMK AO2
K3J7 160315Z AUTO 17003KT 10SM SCT110 26/23 A3005 RMK AO2 LTG DSNT NW
K3J7 160255Z AUTO 19003KT 10SM SCT110 26/24 A3005 RMK AO2 LTG DSNT NW
K3J7 160235Z AUTO 00000KT 10SM CLR 26/24 A3004 RMK AO2 LTG DSNT NW
K3J7 160215Z AUTO 00000KT 10SM CLR 26/25 A3004 RMK AO2
K3J7 160155Z AUTO 00000KT 10SM CLR 26/25 A3003 RMK AO2 LTG DSNT NW
K3J7 160135Z AUTO 00000KT 10SM CLR 26/25 A3002 RMK AO2
K3J7 160115Z AUTO 00000KT 10SM CLR 26/25 A3001 RMK AO2
K3J7 160055Z AUTO 00000KT 10SM CLR 27/25 A3001 RMK AO2
K3J7 160035Z AUTO 00000KT 10SM SCT120 27/25 A3001 RMK AO2
K3J7 160015Z AUTO 00000KT 10SM BKN120 28/25 A3000 RMK AO2
K3J7 152355Z AUTO 16003KT 10SM CLR 28/24 A3000 RMK AO2 LTG DSNT S
K3J7 152335Z AUTO 15004KT 10SM CLR 29/24 A2999 RMK AO2